createdAt,value
2022-08-08T00:00:53.801Z,18.90
2022-08-08T00:02:31.122Z,18.90
2022-08-08T00:05:09.387Z,18.90
2022-08-08T00:07:47.480Z,18.90
2022-08-08T00:10:28.654Z,18.80
2022-08-08T00:13:10.325Z,18.80
2022-08-08T00:15:56.470Z,18.80
2022-08-08T00:18:35.419Z,18.80
2022-08-08T00:21:07.620Z,18.80
2022-08-08T00:23:43.079Z,18.80
2022-08-08T00:26:26.110Z,18.70
2022-08-08T00:29:03.660Z,18.70
2022-08-08T00:32:21.039Z,18.70
2022-08-08T00:35:20.086Z,18.70
2022-08-08T00:38:03.077Z,18.70
2022-08-08T00:41:12.840Z,18.70
2022-08-08T00:44:11.347Z,18.70
2022-08-08T00:47:14.111Z,18.70
2022-08-08T00:50:17.571Z,18.70
2022-08-08T00:52:58.061Z,18.70
2022-08-08T00:56:11.204Z,18.60
2022-08-08T00:59:14.550Z,18.60
2022-08-08T01:02:01.795Z,18.60
2022-08-08T01:05:04.625Z,18.60
2022-08-08T01:08:11.574Z,18.60
2022-08-08T01:10:58.444Z,18.60
2022-08-08T01:14:16.484Z,18.50
2022-08-08T01:17:19.579Z,18.50
2022-08-08T01:20:23.516Z,18.50
2022-08-08T01:24:05.255Z,18.50
2022-08-08T01:26:48.158Z,18.40
2022-08-08T01:29:59.249Z,18.40
2022-08-08T01:33:42.793Z,18.40
2022-08-08T01:36:48.648Z,18.40
2022-08-08T01:39:34.811Z,18.30
2022-08-08T01:42:14.869Z,18.30
2022-08-08T01:45:00.335Z,18.20
2022-08-08T01:48:16.976Z,18.20
2022-08-08T01:50:49.106Z,18.10
2022-08-08T01:55:17.135Z,18.10
2022-08-08T01:56:42.420Z,18.00
2022-08-08T02:00:02.028Z,17.90
2022-08-08T02:02:41.452Z,17.90
2022-08-08T02:05:23.856Z,17.80
2022-08-08T02:08:04.577Z,17.80
2022-08-08T02:10:53.533Z,17.80
2022-08-08T02:13:52.600Z,17.70
2022-08-08T02:16:23.676Z,17.70
2022-08-08T02:19:10.013Z,17.60
2022-08-08T02:22:17.212Z,17.70
2022-08-08T02:24:52.537Z,17.60
2022-08-08T02:27:38.824Z,17.60
2022-08-08T02:30:20.995Z,17.50
2022-08-08T02:33:15.199Z,17.50
2022-08-08T02:36:12.577Z,17.50
2022-08-08T02:39:40.596Z,17.40
2022-08-08T02:42:46.749Z,17.30
2022-08-08T02:45:54.057Z,17.30
2022-08-08T02:49:07.844Z,17.20
2022-08-08T02:51:59.779Z,17.20
2022-08-08T02:55:02.429Z,17.20
2022-08-08T02:58:19.041Z,17.10
2022-08-08T03:01:15.081Z,17.20
2022-08-08T03:05:04.714Z,17.20
2022-08-08T03:07:58.445Z,17.20
2022-08-08T03:10:53.878Z,17.20
2022-08-08T03:15:58.956Z,17.20
2022-08-08T03:16:48.354Z,17.10
2022-08-08T03:19:50.768Z,17.10
2022-08-08T03:22:48.317Z,17.10
2022-08-08T03:25:18.033Z,17.10
2022-08-08T03:27:57.091Z,17.10
2022-08-08T03:30:25.347Z,17.10
2022-08-08T03:33:55.253Z,17.00
2022-08-08T03:36:00.224Z,17.00
2022-08-08T03:38:56.322Z,16.90
2022-08-08T03:42:12.520Z,16.90
2022-08-08T03:44:06.781Z,16.90
2022-08-08T03:46:47.201Z,16.90
2022-08-08T03:49:57.941Z,16.90
2022-08-08T03:52:12.835Z,16.90
2022-08-08T03:55:01.499Z,16.90
2022-08-08T03:58:33.740Z,16.90
2022-08-08T04:00:26.247Z,16.90
2022-08-08T04:03:03.489Z,16.80
2022-08-08T04:05:35.094Z,16.80
2022-08-08T04:08:05.189Z,16.80
2022-08-08T04:10:36.114Z,16.80
2022-08-08T04:13:17.503Z,16.80
2022-08-08T04:15:55.183Z,16.70
2022-08-08T04:18:32.268Z,16.70
2022-08-08T04:21:00.971Z,16.70
2022-08-08T04:23:33.432Z,16.60
2022-08-08T04:26:16.996Z,16.60
2022-08-08T04:28:48.876Z,16.60
2022-08-08T04:31:30.772Z,16.60
2022-08-08T04:34:10.477Z,16.60
2022-08-08T04:36:38.697Z,16.60
2022-08-08T04:40:05.763Z,16.50
2022-08-08T04:41:55.218Z,16.60
2022-08-08T04:44:26.916Z,16.60
2022-08-08T04:46:55.628Z,16.60
2022-08-08T04:49:28.972Z,16.60
2022-08-08T04:52:14.443Z,16.60
2022-08-08T04:54:42.712Z,16.70
2022-08-08T04:57:10.793Z,16.70
2022-08-08T04:59:41.900Z,16.70
2022-08-08T05:02:13.861Z,16.70
2022-08-08T05:04:44.519Z,16.70
2022-08-08T05:07:14.981Z,16.80
2022-08-08T05:09:43.583Z,16.80
2022-08-08T05:12:20.808Z,16.80
2022-08-08T05:14:52.295Z,16.90
2022-08-08T05:17:21.565Z,17.00
2022-08-08T05:20:09.312Z,17.00
2022-08-08T05:22:37.508Z,17.10
2022-08-08T05:25:06.022Z,17.10
2022-08-08T05:27:41.804Z,17.10
2022-08-08T05:30:14.409Z,17.20
2022-08-08T05:32:43.188Z,17.20
2022-08-08T05:35:14.592Z,17.30
2022-08-08T05:37:53.829Z,17.30
2022-08-08T05:40:28.035Z,17.40
2022-08-08T05:43:03.128Z,17.40
2022-08-08T05:46:03.443Z,17.50
2022-08-08T05:48:43.865Z,17.60
2022-08-08T05:51:21.136Z,17.60
2022-08-08T05:54:24.962Z,17.70
2022-08-08T05:56:42.562Z,17.70
2022-08-08T06:00:00.957Z,17.80
2022-08-08T06:02:43.711Z,17.80
2022-08-08T06:05:34.288Z,17.90
2022-08-08T06:08:09.676Z,17.90
2022-08-08T06:10:53.901Z,18.00
2022-08-08T06:13:23.508Z,18.10
2022-08-08T06:15:56.364Z,18.10
2022-08-08T06:18:28.133Z,18.20
2022-08-08T06:20:57.723Z,18.30
2022-08-08T06:23:48.803Z,18.30
2022-08-08T06:26:43.044Z,18.40
2022-08-08T06:29:10.785Z,18.50
2022-08-08T06:32:09.928Z,18.60
2022-08-08T06:34:42.346Z,18.70
2022-08-08T06:37:25.087Z,18.80
2022-08-08T06:39:58.083Z,18.80
2022-08-08T06:42:31.657Z,19.00
2022-08-08T06:45:00.804Z,19.00
2022-08-08T06:47:52.811Z,19.10
2022-08-08T06:50:31.571Z,19.10
2022-08-08T06:53:09.660Z,19.20
2022-08-08T06:55:43.239Z,19.30
2022-08-08T06:58:11.361Z,19.40
2022-08-08T07:00:41.170Z,19.50
2022-08-08T07:03:19.448Z,19.50
2022-08-08T07:06:10.637Z,19.60
2022-08-08T07:08:40.712Z,19.70
2022-08-08T07:11:22.702Z,19.70
2022-08-08T07:14:01.016Z,19.90
2022-08-08T07:16:50.909Z,20.00
2022-08-08T07:19:31.077Z,20.10
2022-08-08T07:22:05.041Z,20.20
2022-08-08T07:24:46.525Z,20.30
2022-08-08T07:27:17.210Z,20.40
2022-08-08T07:29:59.809Z,20.50
2022-08-08T07:32:32.260Z,20.50
2022-08-08T07:35:02.605Z,20.60
2022-08-08T07:37:56.338Z,20.70
2022-08-08T07:40:29.490Z,20.90
2022-08-08T07:43:02.471Z,21.00
2022-08-08T07:45:34.552Z,21.10
2022-08-08T07:48:19.613Z,21.20
2022-08-08T07:50:49.984Z,21.30
2022-08-08T07:54:01.288Z,21.40
2022-08-08T07:56:17.504Z,21.60
2022-08-08T07:59:05.912Z,21.90
2022-08-08T08:02:34.819Z,22.10
2022-08-08T08:04:30.450Z,22.30
2022-08-08T08:07:00.793Z,22.50
2022-08-08T08:09:37.139Z,22.70
2022-08-08T08:12:08.207Z,22.90
2022-08-08T08:14:48.160Z,23.20
2022-08-08T08:17:23.614Z,23.40
2022-08-08T08:19:55.773Z,23.90
2022-08-08T08:22:31.769Z,24.40
2022-08-08T08:25:07.950Z,24.90
2022-08-08T08:27:36.686Z,25.50
2022-08-08T08:30:05.868Z,26.00
2022-08-08T08:32:36.767Z,26.40
2022-08-08T08:35:17.584Z,26.90
2022-08-08T08:38:14.551Z,27.30
2022-08-08T08:40:39.736Z,27.50
2022-08-08T08:43:16.915Z,27.90
2022-08-08T08:45:45.715Z,28.20
2022-08-08T08:48:19.363Z,28.60
2022-08-08T08:50:52.160Z,29.00
2022-08-08T08:53:54.112Z,29.10
2022-08-08T08:56:12.967Z,29.30
2022-08-08T08:58:43.346Z,29.40
2022-08-08T09:01:19.137Z,29.60
2022-08-08T09:03:50.774Z,29.80
2022-08-08T09:06:29.034Z,29.90
2022-08-08T09:09:07.095Z,29.90
2022-08-08T09:11:47.313Z,30.30
2022-08-08T09:14:25.911Z,30.50
2022-08-08T09:16:55.457Z,30.80
2022-08-08T09:21:58.549Z,30.80
2022-08-08T09:22:25.980Z,30.90
2022-08-08T09:24:56.692Z,31.30
2022-08-08T09:27:56.192Z,31.40
2022-08-08T09:30:17.725Z,31.60
2022-08-08T09:33:12.125Z,32.00
2022-08-08T09:35:50.207Z,32.30
2022-08-08T09:38:32.037Z,32.70
2022-08-08T09:41:06.447Z,32.80
2022-08-08T09:44:05.505Z,33.10
2022-08-08T09:46:45.534Z,33.40
2022-08-08T09:49:42.802Z,33.30
2022-08-08T09:53:00.350Z,32.90
2022-08-08T09:55:08.824Z,33.10
2022-08-08T09:57:46.008Z,32.80
2022-08-08T10:00:49.660Z,32.70
2022-08-08T10:03:07.261Z,32.80
2022-08-08T10:05:37.702Z,33.00
2022-08-08T10:08:09.791Z,33.20
2022-08-08T10:10:41.417Z,33.30
2022-08-08T10:13:18.290Z,33.30
2022-08-08T10:16:00.254Z,33.50
2022-08-08T10:18:30.989Z,33.80
2022-08-08T10:21:22.970Z,34.20
2022-08-08T10:23:58.366Z,34.40
2022-08-08T10:26:52.383Z,34.00
2022-08-08T10:29:24.928Z,34.10
2022-08-08T10:32:16.121Z,34.00
2022-08-08T10:34:58.527Z,33.80
2022-08-08T10:37:30.863Z,34.00
2022-08-08T10:40:06.769Z,34.00
2022-08-08T10:42:37.412Z,33.70
2022-08-08T10:45:08.077Z,33.70
2022-08-08T10:47:43.780Z,33.70
2022-08-08T10:50:16.334Z,34.00
2022-08-08T10:52:44.969Z,34.20
2022-08-08T10:55:39.953Z,34.40
2022-08-08T10:58:08.945Z,34.90
2022-08-08T11:00:53.507Z,34.60
2022-08-08T11:04:00.702Z,34.50
2022-08-08T11:06:34.163Z,34.40
2022-08-08T11:09:15.545Z,34.00
2022-08-08T11:12:04.662Z,34.40
2022-08-08T11:14:50.277Z,34.60
2022-08-08T11:18:00.719Z,34.60
2022-08-08T11:20:17.868Z,34.70
2022-08-08T11:22:51.703Z,34.70
2022-08-08T11:25:43.659Z,34.60
2022-08-08T11:28:15.045Z,34.60
2022-08-08T11:30:49.923Z,34.40
2022-08-08T11:33:23.094Z,34.50
2022-08-08T11:36:14.375Z,34.70
2022-08-08T11:38:53.793Z,34.80
2022-08-08T11:41:24.574Z,34.70
2022-08-08T11:43:54.588Z,35.10
2022-08-08T11:46:28.151Z,35.20
2022-08-08T11:48:59.972Z,35.30
2022-08-08T11:51:40.087Z,35.10
2022-08-08T11:54:27.043Z,34.70
2022-08-08T11:57:13.932Z,34.10
2022-08-08T12:00:02.209Z,33.80
2022-08-08T12:02:34.322Z,33.40
2022-08-08T12:05:07.708Z,33.60
2022-08-08T12:07:51.550Z,33.70
2022-08-08T12:10:21.829Z,33.80
2022-08-08T12:12:54.660Z,33.90
2022-08-08T12:15:28.269Z,33.70
2022-08-08T12:17:56.296Z,33.80
2022-08-08T12:20:25.193Z,34.20
2022-08-08T12:22:57.053Z,34.70
2022-08-08T12:25:29.729Z,35.00
2022-08-08T12:28:15.803Z,34.80
2022-08-08T12:30:47.781Z,35.00
2022-08-08T12:33:19.958Z,35.20
2022-08-08T12:35:52.665Z,34.90
2022-08-08T12:38:30.431Z,34.80
2022-08-08T12:41:16.528Z,34.90
2022-08-08T12:43:59.752Z,34.70
2022-08-08T12:46:29.195Z,33.80
2022-08-08T12:51:58.631Z,33.80
2022-08-08T12:54:33.349Z,34.30
2022-08-08T12:57:14.846Z,34.40
2022-08-08T13:00:04.946Z,34.70
2022-08-08T13:02:51.238Z,34.90
2022-08-08T13:05:26.429Z,35.20
2022-08-08T13:08:17.009Z,35.10
2022-08-08T13:10:57.220Z,34.90
2022-08-08T13:13:35.157Z,35.00
2022-08-08T13:16:19.027Z,34.90
2022-08-08T13:18:56.321Z,34.90
2022-08-08T13:21:48.717Z,34.90
2022-08-08T13:24:23.608Z,34.70
2022-08-08T13:27:10.833Z,35.00
2022-08-08T13:29:50.675Z,34.90
2022-08-08T13:32:20.924Z,34.90
2022-08-08T13:34:54.008Z,34.70
2022-08-08T13:37:27.908Z,34.70
2022-08-08T13:40:12.347Z,34.60
2022-08-08T13:42:47.745Z,34.80
2022-08-08T13:45:24.166Z,34.80
2022-08-08T13:47:58.057Z,34.90
2022-08-08T13:50:36.846Z,35.20
2022-08-08T13:53:24.830Z,34.90
2022-08-08T13:56:01.682Z,34.60
2022-08-08T13:58:31.567Z,34.40
2022-08-08T14:01:13.564Z,34.30
2022-08-08T14:03:55.044Z,34.40
2022-08-08T14:06:34.357Z,34.40
2022-08-08T14:09:25.228Z,34.30
2022-08-08T14:11:52.441Z,34.00
2022-08-08T14:14:26.306Z,33.70
2022-08-08T14:16:55.604Z,33.60
2022-08-08T14:19:57.699Z,33.70
2022-08-08T14:22:24.505Z,33.50
2022-08-08T14:24:56.240Z,33.20
2022-08-08T14:27:29.948Z,32.90
2022-08-08T14:30:01.892Z,32.90
2022-08-08T14:32:31.333Z,32.80
2022-08-08T14:35:04.817Z,32.70
2022-08-08T14:37:43.132Z,32.60
2022-08-08T14:40:29.687Z,32.50
2022-08-08T14:42:59.747Z,32.40
2022-08-08T14:45:46.697Z,32.30
2022-08-08T14:48:34.835Z,32.30
2022-08-08T14:51:07.876Z,32.30
2022-08-08T14:53:55.012Z,32.20
2022-08-08T14:56:25.097Z,32.20
2022-08-08T14:58:54.270Z,32.10
2022-08-08T15:01:40.563Z,32.00
2022-08-08T15:04:10.483Z,31.70
2022-08-08T15:06:39.033Z,31.60
2022-08-08T15:09:10.350Z,31.50
2022-08-08T15:11:43.308Z,31.50
2022-08-08T15:14:14.981Z,31.40
2022-08-08T15:16:44.691Z,31.30
2022-08-08T15:19:14.960Z,31.30
2022-08-08T15:21:44.566Z,31.40
2022-08-08T15:24:14.277Z,31.30
2022-08-08T15:26:52.995Z,31.10
2022-08-08T15:29:22.632Z,31.00
2022-08-08T15:32:17.736Z,31.00
2022-08-08T15:34:42.352Z,31.00
2022-08-08T15:37:10.714Z,31.00
2022-08-08T15:39:41.304Z,30.90
2022-08-08T15:42:18.041Z,30.90
2022-08-08T15:44:57.969Z,30.90
2022-08-08T15:47:27.293Z,30.80
2022-08-08T15:49:55.277Z,30.70
2022-08-08T15:52:24.916Z,30.60
2022-08-08T15:54:53.115Z,30.50
2022-08-08T15:57:39.998Z,30.50
2022-08-08T16:00:26.844Z,30.40
2022-08-08T16:02:57.906Z,30.40
2022-08-08T16:05:35.493Z,30.40
2022-08-08T16:08:04.147Z,30.30
2022-08-08T16:13:03.376Z,30.30
2022-08-08T16:13:30.320Z,30.40
2022-08-08T16:16:18.003Z,30.30
2022-08-08T16:18:57.432Z,30.30
2022-08-08T16:21:28.123Z,30.30
2022-08-08T16:23:57.863Z,30.20
2022-08-08T16:26:33.002Z,30.20
2022-08-08T16:29:07.892Z,30.30
2022-08-08T16:31:37.399Z,30.10
2022-08-08T16:34:06.856Z,30.10
2022-08-08T16:36:37.430Z,30.10
2022-08-08T16:39:17.096Z,30.00
2022-08-08T16:41:54.047Z,30.00
2022-08-08T16:44:33.880Z,29.90
2022-08-08T16:47:18.133Z,29.90
2022-08-08T16:49:51.398Z,29.80
2022-08-08T16:55:05.351Z,29.80
2022-08-08T16:55:24.957Z,29.70
2022-08-08T16:58:14.696Z,29.70
2022-08-08T17:00:48.792Z,29.70
2022-08-08T17:03:25.285Z,29.70
2022-08-08T17:06:35.353Z,29.60
2022-08-08T17:08:57.505Z,29.50
2022-08-08T17:11:28.078Z,29.50
2022-08-08T17:14:17.926Z,29.40
2022-08-08T17:16:51.789Z,29.40
2022-08-08T17:19:26.826Z,29.30
2022-08-08T17:21:56.095Z,29.30
2022-08-08T17:24:27.951Z,29.20
2022-08-08T17:26:58.729Z,29.10
2022-08-08T17:29:27.137Z,29.00
2022-08-08T17:31:54.999Z,29.00
2022-08-08T17:34:37.233Z,28.90
2022-08-08T17:37:15.175Z,28.90
2022-08-08T17:40:04.977Z,28.80
2022-08-08T17:42:31.109Z,28.70
2022-08-08T17:44:59.335Z,28.70
2022-08-08T17:47:40.379Z,28.60
2022-08-08T17:50:10.294Z,28.60
2022-08-08T17:52:43.216Z,28.50
2022-08-08T17:56:05.118Z,28.40
2022-08-08T17:58:01.921Z,28.40
2022-08-08T18:00:31.070Z,28.30
2022-08-08T18:03:07.272Z,28.30
2022-08-08T18:05:48.391Z,28.20
2022-08-08T18:08:37.942Z,28.10
2022-08-08T18:11:14.501Z,28.10
2022-08-08T18:13:44.431Z,28.00
2022-08-08T18:16:17.200Z,27.90
2022-08-08T18:18:53.721Z,27.80
2022-08-08T18:21:24.838Z,27.70
2022-08-08T18:24:04.917Z,27.70
2022-08-08T18:26:34.087Z,27.60
2022-08-08T18:29:02.919Z,27.60
2022-08-08T18:31:34.014Z,27.50
2022-08-08T18:34:11.460Z,27.40
2022-08-08T18:36:47.665Z,27.40
2022-08-08T18:39:28.462Z,27.30
2022-08-08T18:42:03.116Z,27.20
2022-08-08T18:44:35.875Z,27.10
2022-08-08T18:47:05.082Z,26.90
2022-08-08T18:49:40.874Z,26.90
2022-08-08T18:52:23.327Z,26.80
2022-08-08T18:54:59.122Z,26.70
2022-08-08T18:57:31.680Z,26.60
2022-08-08T19:00:00.621Z,26.60
2022-08-08T19:02:30.021Z,26.50
2022-08-08T19:04:58.124Z,26.40
2022-08-08T19:07:29.702Z,26.30
2022-08-08T19:10:14.716Z,26.20
2022-08-08T19:12:53.002Z,26.20
2022-08-08T19:15:25.969Z,26.10
2022-08-08T19:18:32.894Z,26.00
2022-08-08T19:20:43.074Z,25.90
2022-08-08T19:23:14.918Z,25.80
2022-08-08T19:26:20.003Z,25.80
2022-08-08T19:28:36.445Z,25.70
2022-08-08T19:31:07.367Z,25.60
2022-08-08T19:33:51.767Z,25.60
2022-08-08T19:36:28.249Z,25.40
2022-08-08T19:38:56.480Z,25.40
2022-08-08T19:41:29.768Z,25.20
2022-08-08T19:44:03.025Z,25.10
2022-08-08T19:46:33.239Z,25.10
2022-08-08T19:49:03.204Z,25.00
2022-08-08T19:51:34.535Z,24.90
2022-08-08T19:54:07.696Z,24.90
2022-08-08T19:56:40.215Z,24.80
2022-08-08T19:59:09.243Z,24.80
2022-08-08T20:02:02.351Z,24.70
2022-08-08T20:04:26.359Z,24.70
2022-08-08T20:06:56.896Z,24.60
2022-08-08T20:09:25.649Z,24.50
2022-08-08T20:12:01.930Z,24.50
2022-08-08T20:14:35.689Z,24.50
2022-08-08T20:17:04.413Z,24.40
2022-08-08T20:19:34.441Z,24.30
2022-08-08T20:22:13.343Z,24.30
2022-08-08T20:24:54.627Z,24.20
2022-08-08T20:27:24.619Z,24.20
2022-08-08T20:29:55.683Z,24.20
2022-08-08T20:32:29.473Z,24.10
2022-08-08T20:35:00.749Z,24.10
2022-08-08T20:37:46.902Z,24.00
2022-08-08T20:40:33.684Z,24.00
2022-08-08T20:43:16.126Z,24.00
2022-08-08T20:45:57.363Z,23.90
2022-08-08T20:48:31.688Z,23.80
2022-08-08T20:50:59.852Z,23.80
2022-08-08T20:54:00.622Z,23.70
2022-08-08T20:56:15.608Z,23.70
2022-08-08T20:58:47.847Z,23.70
2022-08-08T21:01:20.328Z,23.60
2022-08-08T21:04:00.267Z,23.60
2022-08-08T21:06:52.838Z,23.60
2022-08-08T21:09:20.657Z,23.50
2022-08-08T21:11:51.762Z,23.50
2022-08-08T21:14:30.237Z,23.40
2022-08-08T21:17:01.763Z,23.40
2022-08-08T21:19:34.098Z,23.30
2022-08-08T21:22:13.765Z,23.30
2022-08-08T21:24:52.781Z,23.30
2022-08-08T21:28:05.359Z,23.20
2022-08-08T21:30:19.343Z,23.20
2022-08-08T21:32:52.343Z,23.10
2022-08-08T21:36:19.183Z,23.10
2022-08-08T21:38:16.240Z,23.00
2022-08-08T21:40:55.017Z,23.00
2022-08-08T21:43:33.713Z,22.90
2022-08-08T21:48:06.765Z,22.90
2022-08-08T21:48:54.054Z,22.80
2022-08-08T21:54:31.997Z,22.70
2022-08-08T21:54:36.812Z,22.70
2022-08-08T21:57:01.477Z,22.60
2022-08-08T22:00:01.825Z,22.50
2022-08-08T22:02:23.965Z,22.50
2022-08-08T22:04:53.523Z,22.50
2022-08-08T22:07:26.075Z,22.40
2022-08-08T22:10:02.897Z,22.40
2022-08-08T22:12:38.757Z,22.40
2022-08-08T22:15:09.603Z,22.30
2022-08-08T22:17:41.453Z,22.30
2022-08-08T22:20:23.834Z,22.10
2022-08-08T22:22:56.299Z,22.10
2022-08-08T22:25:25.449Z,22.10
2022-08-08T22:28:03.671Z,22.00
2022-08-08T22:30:33.472Z,22.00
2022-08-08T22:33:09.194Z,22.00
2022-08-08T22:36:05.380Z,21.90
2022-08-08T22:38:48.019Z,21.90
2022-08-08T22:41:21.473Z,21.80
2022-08-08T22:44:02.541Z,21.80
2022-08-08T22:46:34.365Z,21.80
2022-08-08T22:49:09.117Z,21.70
2022-08-08T22:51:42.786Z,21.70
2022-08-08T22:54:31.046Z,21.60
2022-08-08T22:57:02.273Z,21.50
2022-08-08T22:59:58.739Z,21.50
2022-08-08T23:02:28.717Z,21.50
2022-08-08T23:04:58.562Z,21.40
2022-08-08T23:07:49.224Z,21.40
2022-08-08T23:10:25.202Z,21.30
2022-08-08T23:12:55.038Z,21.30
2022-08-08T23:16:37.612Z,21.30
2022-08-08T23:18:12.118Z,21.20
2022-08-08T23:20:43.523Z,21.20
2022-08-08T23:23:12.375Z,21.20
2022-08-08T23:25:47.805Z,21.20
2022-08-08T23:28:17.706Z,21.10
2022-08-08T23:30:46.769Z,21.10
2022-08-08T23:33:21.168Z,21.10
2022-08-08T23:36:08.031Z,21.00
2022-08-08T23:38:44.378Z,21.00
2022-08-08T23:41:23.259Z,21.00
2022-08-08T23:43:53.920Z,21.00
2022-08-08T23:49:06.560Z,20.90
2022-08-08T23:49:18.244Z,20.90
2022-08-08T23:52:04.996Z,20.80
2022-08-08T23:54:41.500Z,20.80
2022-08-08T23:57:25.318Z,20.80
